Time;durP1;ratioP1;P1;durP2;ratioP2;P2;SDS_P1;SDS_P2;PMS_P1;PMS_P2;Temp;Humidity;BMP_temperature;BMP_pressure;BME280_temperature;BME280_humidity;BME280_pressure;Samples;Min_cycle;Max_cycle;Signal;HPM_P1;HPM_P2
2024/03/02 00:02:25;;;;;;;;;;;;;;;7.18;100.00;95833.89;106994;1294;22527;-85
2024/03/02 00:04:52;;;;;;;;;;;;;;;7.20;100.00;95834.63;107119;1300;25421;-85
2024/03/02 00:07:19;;;;;;;;;;;;;;;7.19;100.00;95835.66;106998;1300;22562;-85
2024/03/02 00:09:45;;;;;;;;;;;;;;;7.19;100.00;95835.70;107005;1300;22618;-85
2024/03/02 00:12:13;;;;;;;;;;;;;;;7.18;100.00;95836.80;107100;1300;25259;-86
2024/03/02 00:14:40;;;;;;;;;;;;;;;7.17;100.00;95838.70;106914;1283;22577;-86
2024/03/02 00:17:07;;;;;;;;;;;;;;;7.16;100.00;95841.95;107128;1295;22515;-85
2024/03/02 00:19:34;;;;;;;;;;;;;;;7.16;100.00;95847.67;107130;1300;22514;-85
2024/03/02 00:22:01;;;;;;;;;;;;;;;7.16;100.00;95843.95;107025;1300;22554;-85
2024/03/02 00:24:32;;;;;;;;;;;;;;;7.15;100.00;95840.98;107184;1281;22543;-85
2024/03/02 00:26:58;;;;;;;;;;;;;;;7.15;100.00;95842.17;107129;1292;22554;-85
2024/03/02 00:29:25;;;;;;;;;;;;;;;7.14;100.00;95843.54;106906;1281;22514;-85
2024/03/02 00:31:52;;;;;;;;;;;;;;;7.12;100.00;95840.33;107173;1282;23183;-85
2024/03/02 00:34:19;;;;;;;;;;;;;;;7.11;100.00;95843.69;107156;1297;22682;-85
2024/03/02 00:36:45;;;;;;;;;;;;;;;7.11;100.00;95844.05;107150;1298;22557;-85
2024/03/02 00:39:13;;;;;;;;;;;;;;;7.09;100.00;95840.00;106952;1300;25394;-85
2024/03/02 00:41:40;;;;;;;;;;;;;;;7.06;100.00;95842.58;107139;1300;22547;-85
2024/03/02 00:44:06;;;;;;;;;;;;;;;7.06;100.00;95843.41;107094;1300;22511;-85
2024/03/02 00:46:33;;;;;;;;;;;;;;;7.05;100.00;95846.81;106878;1301;23324;-85
2024/03/02 00:49:00;;;;;;;;;;;;;;;7.05;100.00;95846.46;106923;1300;22511;-85
2024/03/02 00:51:27;;;;;;;;;;;;;;;7.04;100.00;95848.86;107001;1300;22599;-85
2024/03/02 00:53:57;;;;;;;;;;;;;;;7.03;100.00;95846.51;107108;1300;24205;-85
2024/03/02 00:56:24;;;;;;;;;;;;;;;7.02;100.00;95845.23;107157;1288;22562;-86
2024/03/02 00:58:50;;;;;;;;;;;;;;;7.03;100.00;95844.48;106981;1300;22531;-86
2024/03/02 01:01:17;;;;;;;;;;;;;;;7.05;100.00;95837.72;107206;1300;22519;-86
2024/03/02 01:03:44;;;;;;;;;;;;;;;7.06;100.00;95839.29;106967;1301;22534;-85
2024/03/02 01:06:10;;;;;;;;;;;;;;;7.06;100.00;95832.34;106993;1300;22511;-85
2024/03/02 01:08:37;;;;;;;;;;;;;;;7.09;100.00;95830.11;107093;1300;22546;-85
2024/03/02 01:11:03;;;;;;;;;;;;;;;7.17;100.00;95826.86;107077;1301;23351;-85
2024/03/02 01:13:30;;;;;;;;;;;;;;;7.30;100.00;95830.33;106848;1301;22575;-85
2024/03/02 01:15:57;;;;;;;;;;;;;;;7.36;100.00;95825.83;106970;1301;22592;-85
2024/03/02 01:18:23;;;;;;;;;;;;;;;7.38;100.00;95823.78;106897;1295;22517;-85
2024/03/02 01:20:55;;;;;;;;;;;;;;;7.38;100.00;95823.55;106771;1300;22660;-84
2024/03/02 01:23:22;;;;;;;;;;;;;;;7.38;100.00;95823.27;106970;1295;24806;-85
2024/03/02 01:25:48;;;;;;;;;;;;;;;7.37;100.00;95817.85;107005;1300;25454;-84
2024/03/02 01:28:15;;;;;;;;;;;;;;;7.37;100.00;95816.85;107077;1298;22615;-85
2024/03/02 01:30:41;;;;;;;;;;;;;;;7.37;100.00;95808.94;106923;1301;24356;-84
2024/03/02 01:33:08;;;;;;;;;;;;;;;7.38;100.00;95803.63;107042;1295;24072;-84
2024/03/02 01:35:37;;;;;;;;;;;;;;;7.38;100.00;95799.98;107002;1300;22555;-85
2024/03/02 01:38:07;;;;;;;;;;;;;;;7.39;100.00;95800.21;106928;1300;22570;-84
2024/03/02 01:40:34;;;;;;;;;;;;;;;7.40;100.00;95797.88;107112;1300;22556;-84
2024/03/02 01:43:02;;;;;;;;;;;;;;;7.41;100.00;95801.67;107114;1296;22567;-84
2024/03/02 01:45:28;;;;;;;;;;;;;;;7.41;100.00;95798.34;106896;1294;25466;-83
2024/03/02 01:47:55;;;;;;;;;;;;;;;7.42;100.00;95795.91;106871;1300;24204;-84
2024/03/02 01:50:25;;;;;;;;;;;;;;;7.40;100.00;95794.71;107145;1293;22547;-84
2024/03/02 01:52:51;;;;;;;;;;;;;;;7.40;100.00;95791.58;107001;1297;22540;-84
2024/03/02 01:55:18;;;;;;;;;;;;;;;7.41;100.00;95791.57;107003;1300;24209;-85
2024/03/02 01:57:44;;;;;;;;;;;;;;;7.40;100.00;95791.48;107190;1295;22521;-84
2024/03/02 02:00:11;;;;;;;;;;;;;;;7.39;100.00;95792.79;107090;1300;22547;-84
2024/03/02 02:02:37;;;;;;;;;;;;;;;7.38;100.00;95788.92;107002;1298;22564;-84
2024/03/02 02:05:04;;;;;;;;;;;;;;;7.37;100.00;95797.30;107113;1292;22558;-85
2024/03/02 02:07:31;;;;;;;;;;;;;;;7.34;100.00;95791.81;107165;1296;24235;-84
2024/03/02 02:09:57;;;;;;;;;;;;;;;7.33;100.00;95792.02;107114;1288;22548;-84
2024/03/02 02:12:24;;;;;;;;;;;;;;;7.33;100.00;95790.88;107175;1297;22554;-85
2024/03/02 02:14:51;;;;;;;;;;;;;;;7.36;100.00;95800.77;107153;1300;22536;-85
2024/03/02 02:17:17;;;;;;;;;;;;;;;7.38;100.00;95799.42;107038;1300;22540;-89
2024/03/02 02:19:44;;;;;;;;;;;;;;;7.37;100.00;95794.75;106923;1294;22560;-89
2024/03/02 02:22:10;;;;;;;;;;;;;;;7.35;100.00;95791.93;106986;1300;22507;-89
2024/03/02 02:24:41;;;;;;;;;;;;;;;7.30;100.00;95795.41;106937;1294;22516;-89
2024/03/02 02:27:08;;;;;;;;;;;;;;;7.23;100.00;95793.38;108311;1294;22455;-88
2024/03/02 02:29:34;;;;;;;;;;;;;;;7.18;100.00;95798.08;108442;1295;22389;-87
2024/03/02 02:32:01;;;;;;;;;;;;;;;7.16;100.00;95798.90;108291;1294;22552;-87
2024/03/02 02:34:28;;;;;;;;;;;;;;;7.13;100.00;95796.55;108441;1300;22903;-88
2024/03/02 02:36:55;;;;;;;;;;;;;;;7.15;100.00;95797.22;108265;1294;22445;-88
2024/03/02 02:39:25;;;;;;;;;;;;;;;7.16;100.00;95791.34;108043;1294;22417;-87
2024/03/02 02:41:51;;;;;;;;;;;;;;;7.17;100.00;95791.20;107999;1301;22590;-87
2024/03/02 02:44:18;;;;;;;;;;;;;;;7.17;100.00;95789.80;106907;1295;22556;-88
2024/03/02 02:46:44;;;;;;;;;;;;;;;7.18;100.00;95794.30;107070;1294;22521;-88
2024/03/02 02:49:10;;;;;;;;;;;;;;;7.18;100.00;95790.73;107003;1295;25291;-88
2024/03/02 02:51:37;;;;;;;;;;;;;;;7.17;100.00;95793.89;106930;1294;22545;-87
2024/03/02 02:54:03;;;;;;;;;;;;;;;7.16;100.00;95791.45;107034;1301;22688;-88
2024/03/02 02:56:30;;;;;;;;;;;;;;;7.15;100.00;95790.38;107022;1295;22552;-88
2024/03/02 02:58:56;;;;;;;;;;;;;;;7.11;100.00;95792.70;107057;1283;25114;-88
2024/03/02 03:01:23;;;;;;;;;;;;;;;7.10;100.00;95795.27;106951;1294;23143;-89
2024/03/02 03:03:49;;;;;;;;;;;;;;;7.09;100.00;95796.85;106990;1292;22493;-89
2024/03/02 03:06:15;;;;;;;;;;;;;;;7.10;100.00;95798.40;107170;1292;24238;-88
2024/03/02 03:08:42;;;;;;;;;;;;;;;7.11;100.00;95797.19;106968;1291;22486;-89
2024/03/02 03:11:09;;;;;;;;;;;;;;;7.12;100.00;95799.83;106871;1300;22556;-88
2024/03/02 03:13:36;;;;;;;;;;;;;;;7.13;100.00;95801.15;106980;1295;24343;-88
2024/03/02 03:16:02;;;;;;;;;;;;;;;7.14;100.00;95800.65;107164;1300;22630;-87
2024/03/02 03:18:29;;;;;;;;;;;;;;;7.16;100.00;95802.52;107226;1300;25420;-86
2024/03/02 03:20:55;;;;;;;;;;;;;;;7.18;100.00;95804.35;106940;1290;22513;-87
2024/03/02 03:23:22;;;;;;;;;;;;;;;7.21;100.00;95802.96;106905;1300;22542;-87
2024/03/02 03:25:48;;;;;;;;;;;;;;;7.23;100.00;95803.55;107121;1300;22550;-88
2024/03/02 03:28:15;;;;;;;;;;;;;;;7.26;100.00;95804.44;107206;1300;22546;-88
2024/03/02 03:30:41;;;;;;;;;;;;;;;7.30;100.00;95802.42;106942;1300;22698;-88
2024/03/02 03:33:08;;;;;;;;;;;;;;;7.33;100.00;95800.05;107115;1300;22562;-88
2024/03/02 03:35:35;;;;;;;;;;;;;;;7.36;100.00;95797.83;106968;1301;22618;-88
2024/03/02 03:38:02;;;;;;;;;;;;;;;7.39;100.00;95795.20;106864;1296;22619;-88
2024/03/02 03:40:28;;;;;;;;;;;;;;;7.42;100.00;95792.03;107170;1300;22581;-88
2024/03/02 03:42:56;;;;;;;;;;;;;;;7.44;100.00;95786.49;106991;1295;22550;-88
2024/03/02 03:45:25;;;;;;;;;;;;;;;7.47;100.00;95784.07;106907;1292;24728;-88
2024/03/02 03:47:51;;;;;;;;;;;;;;;7.50;100.00;95786.52;107059;1300;22552;-88
2024/03/02 03:50:18;;;;;;;;;;;;;;;7.50;100.00;95785.61;106897;1297;22513;-88
2024/03/02 03:52:44;;;;;;;;;;;;;;;7.52;100.00;95782.84;107160;1300;22569;-88
2024/03/02 03:55:11;;;;;;;;;;;;;;;7.53;100.00;95777.50;106989;1299;22610;-89
2024/03/02 03:57:37;;;;;;;;;;;;;;;7.55;100.00;95782.52;107013;1297;22929;-88
2024/03/02 04:00:04;;;;;;;;;;;;;;;7.56;100.00;95778.56;107203;1294;25402;-88
2024/03/02 04:02:30;;;;;;;;;;;;;;;7.57;100.00;95784.14;106995;1300;22582;-88
2024/03/02 04:04:57;;;;;;;;;;;;;;;7.58;100.00;95788.36;106973;1295;22566;-89
2024/03/02 04:07:23;;;;;;;;;;;;;;;7.59;100.00;95782.02;106892;1301;22652;-88
2024/03/02 04:09:50;;;;;;;;;;;;;;;7.61;100.00;95784.66;106928;1288;22569;-89
2024/03/02 04:12:17;;;;;;;;;;;;;;;7.63;100.00;95785.39;106947;1295;22574;-88
2024/03/02 04:14:43;;;;;;;;;;;;;;;7.63;100.00;95784.65;107026;1300;22539;-88
2024/03/02 04:17:10;;;;;;;;;;;;;;;7.64;100.00;95784.19;107149;1294;22593;-88
2024/03/02 04:19:36;;;;;;;;;;;;;;;7.64;100.00;95780.54;107171;1292;22527;-88
2024/03/02 04:22:03;;;;;;;;;;;;;;;7.65;100.00;95774.09;106746;1300;23016;-88
2024/03/02 04:24:30;;;;;;;;;;;;;;;7.65;100.00;95771.89;107013;1292;23372;-88
2024/03/02 04:26:56;;;;;;;;;;;;;;;7.64;100.00;95777.49;107038;1294;23938;-87
2024/03/02 04:29:22;;;;;;;;;;;;;;;7.64;100.00;95777.54;107163;1295;22514;-88
2024/03/02 04:31:49;;;;;;;;;;;;;;;7.62;100.00;95781.81;107071;1298;22538;-85
2024/03/02 04:34:15;;;;;;;;;;;;;;;7.61;100.00;95782.67;106866;1296;25271;-84
2024/03/02 04:36:43;;;;;;;;;;;;;;;7.59;100.00;95783.56;107019;1300;22544;-85
2024/03/02 04:39:09;;;;;;;;;;;;;;;7.57;100.00;95785.05;106987;1298;22518;-84
2024/03/02 04:41:36;;;;;;;;;;;;;;;7.55;100.00;95786.82;106966;1295;22519;-84
2024/03/02 04:44:02;;;;;;;;;;;;;;;7.53;100.00;95786.36;106987;1294;22565;-84
2024/03/02 04:46:29;;;;;;;;;;;;;;;7.51;100.00;95784.50;107013;1294;22539;-84
2024/03/02 04:48:57;;;;;;;;;;;;;;;7.49;100.00;95783.84;106900;1295;22536;-84
2024/03/02 04:51:23;;;;;;;;;;;;;;;7.47;100.00;95789.75;106982;1294;22603;-84
2024/03/02 04:53:50;;;;;;;;;;;;;;;7.46;100.00;95789.02;107107;1297;22511;-84
2024/03/02 04:58:58;;;;;;;;;;;;;;;7.43;100.00;95791.84;106944;1300;24174;-84
2024/03/02 05:01:24;;;;;;;;;;;;;;;7.42;100.00;95789.89;106837;1301;25421;-84
2024/03/02 05:03:50;;;;;;;;;;;;;;;7.41;100.00;95790.18;107085;1300;22518;-84
2024/03/02 05:06:17;;;;;;;;;;;;;;;7.39;100.00;95797.80;106903;1292;22561;-84
2024/03/02 05:08:44;;;;;;;;;;;;;;;7.38;100.00;95799.97;107029;1300;24651;-84
2024/03/02 05:13:56;;;;;;;;;;;;;;;7.35;100.00;95805.98;106989;1300;24230;-83
2024/03/02 05:16:23;;;;;;;;;;;;;;;7.35;100.00;95810.63;106927;1296;23775;-85
2024/03/02 05:18:50;;;;;;;;;;;;;;;7.36;100.00;95811.95;106851;1285;24222;-84
2024/03/02 08:19:14;;;;;;;;;;;;;;;10.23;100.00;95884.73;107111;1297;25486;-83
2024/03/02 08:21:41;;;;;;;;;;;;;;;10.31;100.00;95882.39;107272;1295;22564;-83
2024/03/02 08:24:07;;;;;;;;;;;;;;;10.37;100.00;95884.89;107195;1298;22547;-84
2024/03/02 08:26:34;;;;;;;;;;;;;;;10.42;100.00;95887.05;107389;1295;22543;-83
2024/03/02 08:29:01;;;;;;;;;;;;;;;10.49;100.00;95886.12;107353;1293;22545;-83
2024/03/02 08:31:28;;;;;;;;;;;;;;;10.54;100.00;95887.80;107245;1296;25100;-84
2024/03/02 08:33:54;;;;;;;;;;;;;;;10.59;100.00;95886.69;107136;1292;22576;-83
2024/03/02 08:36:21;;;;;;;;;;;;;;;10.62;100.00;95887.66;107174;1297;24204;-83
2024/03/02 08:38:48;;;;;;;;;;;;;;;10.66;100.00;95889.74;107392;1292;22467;-83
2024/03/02 08:41:15;;;;;;;;;;;;;;;10.74;100.00;95889.02;107323;1298;25396;-83
2024/03/02 08:43:42;;;;;;;;;;;;;;;10.80;100.00;95889.27;107253;1298;23629;-84
2024/03/02 08:46:09;;;;;;;;;;;;;;;10.89;100.00;95894.33;107304;1298;22503;-84
2024/03/02 08:48:35;;;;;;;;;;;;;;;10.93;100.00;95893.21;107415;1288;22560;-84
2024/03/02 08:51:04;;;;;;;;;;;;;;;10.98;100.00;95895.02;107166;1297;23262;-85
2024/03/02 08:53:30;;;;;;;;;;;;;;;11.02;100.00;95892.63;108212;1298;23161;-85
2024/03/02 08:55:57;;;;;;;;;;;;;;;11.07;100.00;95894.77;108738;1292;22430;-85
2024/03/02 08:58:23;;;;;;;;;;;;;;;11.11;100.00;95898.06;108469;1290;22464;-85
2024/03/02 09:00:50;;;;;;;;;;;;;;;11.16;100.00;95897.09;108511;1292;22550;-85
2024/03/02 09:03:17;;;;;;;;;;;;;;;11.20;100.00;95899.14;108683;1292;22465;-84
2024/03/02 09:05:44;;;;;;;;;;;;;;;11.24;100.00;95898.52;108504;1297;23224;-85
2024/03/02 09:08:11;;;;;;;;;;;;;;;11.29;100.00;95899.34;108410;1298;23077;-85
2024/03/02 09:10:39;;;;;;;;;;;;;;;11.34;100.00;95901.25;107586;1298;22561;-84
2024/03/02 09:13:06;;;;;;;;;;;;;;;11.39;100.00;95903.63;107384;1298;22569;-85
2024/03/02 09:15:32;;;;;;;;;;;;;;;11.42;100.00;95904.72;107139;1292;22571;-85
2024/03/02 09:17:59;;;;;;;;;;;;;;;11.46;100.00;95907.76;107151;1297;25287;-84
2024/03/02 09:20:27;;;;;;;;;;;;;;;11.49;100.00;95906.31;108265;1296;262260;-85
2024/03/02 09:22:54;;;;;;;;;;;;;;;11.55;100.00;95910.73;108620;1298;22489;-85
2024/03/02 09:25:20;;;;;;;;;;;;;;;11.61;100.00;95913.95;108585;1295;22435;-85
2024/03/02 09:27:47;;;;;;;;;;;;;;;11.69;100.00;95914.09;108069;1295;22682;-84
2024/03/02 09:30:13;;;;;;;;;;;;;;;11.73;100.00;95918.36;107064;1296;22511;-84
2024/03/02 09:32:40;;;;;;;;;;;;;;;11.75;100.00;95920.24;107254;1295;23764;-85
2024/03/02 09:35:07;;;;;;;;;;;;;;;11.76;100.00;95925.36;107181;1293;22538;-84
2024/03/02 09:37:33;;;;;;;;;;;;;;;11.76;100.00;95931.61;107127;1297;22572;-85
2024/03/02 09:40:00;;;;;;;;;;;;;;;11.77;100.00;95932.45;107072;1295;22544;-85
2024/03/02 09:42:27;;;;;;;;;;;;;;;11.80;100.00;95928.35;107280;1298;24394;-85
2024/03/02 09:44:53;;;;;;;;;;;;;;;11.79;100.00;95927.71;108651;1294;22514;-85
2024/03/02 09:47:20;;;;;;;;;;;;;;;11.81;100.00;95936.16;108009;1292;22688;-85
2024/03/02 09:49:46;;;;;;;;;;;;;;;11.84;100.00;95933.11;107215;1297;22516;-84
2024/03/02 09:52:14;;;;;;;;;;;;;;;11.87;100.00;95939.31;107178;1297;23232;-84
2024/03/02 09:54:41;;;;;;;;;;;;;;;11.88;99.72;95943.23;107377;1298;22512;-85
2024/03/02 09:57:07;;;;;;;;;;;;;;;11.89;97.70;95944.86;107253;1298;22563;-84
2024/03/02 09:59:34;;;;;;;;;;;;;;;11.89;98.49;95944.67;107168;1298;22543;-85
2024/03/02 10:02:01;;;;;;;;;;;;;;;11.90;97.30;95948.91;107286;1297;22482;-84
2024/03/02 10:04:28;;;;;;;;;;;;;;;11.89;97.87;95944.23;107161;1293;22513;-84
2024/03/02 10:07:13;;;;;;;;;;;;;;;11.89;97.81;95947.30;107192;1298;22567;-84
2024/03/02 10:09:40;;;;;;;;;;;;;;;11.89;96.74;95948.30;107299;1298;23888;-84
2024/03/02 10:12:09;;;;;;;;;;;;;;;11.89;98.09;95945.66;107228;1298;22539;-84
2024/03/02 10:14:36;;;;;;;;;;;;;;;11.90;98.05;95944.75;107178;1289;23183;-84
2024/03/02 10:17:03;;;;;;;;;;;;;;;11.89;98.51;95944.14;107056;1292;25407;-85
2024/03/02 10:19:34;;;;;;;;;;;;;;;11.87;99.01;95943.02;107291;1298;22536;-84
2024/03/02 10:22:02;;;;;;;;;;;;;;;11.82;98.44;95948.09;107376;1289;24917;-85
2024/03/02 10:24:35;;;;;;;;;;;;;;;11.80;99.19;95949.54;107255;1297;22534;-85
2024/03/02 10:27:02;;;;;;;;;;;;;;;11.75;98.86;95949.80;108637;1296;22461;-85
2024/03/02 10:29:29;;;;;;;;;;;;;;;11.69;97.54;95948.17;108654;1290;22448;-85
2024/03/02 10:31:56;;;;;;;;;;;;;;;11.68;98.46;95949.38;108671;1297;22444;-85
2024/03/02 10:34:22;;;;;;;;;;;;;;;11.68;99.51;95951.70;108515;1298;22514;-85
2024/03/02 10:36:49;;;;;;;;;;;;;;;11.68;100.00;95950.77;107451;1293;25386;-84
2024/03/02 10:39:15;;;;;;;;;;;;;;;11.67;100.00;95953.05;107287;1289;23937;-84
2024/03/02 10:41:42;;;;;;;;;;;;;;;11.62;100.00;95955.14;107333;1298;22587;-84
2024/03/02 10:44:09;;;;;;;;;;;;;;;11.57;100.00;95952.66;107316;1297;22525;-84
2024/03/02 10:46:36;;;;;;;;;;;;;;;11.55;100.00;95948.75;107262;1290;23138;-84
2024/03/02 10:49:03;;;;;;;;;;;;;;;11.52;100.00;95946.82;107237;1297;22554;-85
2024/03/02 10:51:33;;;;;;;;;;;;;;;11.50;100.00;95948.27;108732;1296;23096;-85
2024/03/02 10:54:06;;;;;;;;;;;;;;;11.46;100.00;95947.27;108560;1297;22456;-86
2024/03/02 10:56:38;;;;;;;;;;;;;;;11.42;100.00;95947.83;108507;1298;22443;-85
2024/03/02 10:59:04;;;;;;;;;;;;;;;11.38;100.00;95944.27;108504;1293;23184;-85
2024/03/02 11:01:31;;;;;;;;;;;;;;;11.32;100.00;95943.54;108687;1297;23062;-85
2024/03/02 11:03:58;;;;;;;;;;;;;;;11.25;100.00;95943.21;108653;1292;22464;-85
2024/03/02 11:06:26;;;;;;;;;;;;;;;11.21;100.00;95940.95;108617;1290;23153;-85
2024/03/02 11:08:55;;;;;;;;;;;;;;;11.19;100.00;95943.59;108538;1298;22467;-89
2024/03/02 11:11:24;;;;;;;;;;;;;;;11.19;100.00;95944.31;108484;1282;23318;-88
2024/03/02 11:13:50;;;;;;;;;;;;;;;11.21;100.00;95945.67;107697;1296;22669;-88
2024/03/02 11:16:25;;;;;;;;;;;;;;;11.19;100.00;95943.59;107187;1289;22533;-88
2024/03/02 11:18:55;;;;;;;;;;;;;;;11.16;100.00;95940.02;108583;1297;22509;-88
2024/03/02 11:21:23;;;;;;;;;;;;;;;11.12;100.00;95941.70;107224;1292;25255;-88
2024/03/02 11:23:50;;;;;;;;;;;;;;;11.10;100.00;95941.34;107268;1298;22525;-88
2024/03/02 11:26:21;;;;;;;;;;;;;;;11.06;100.00;95940.04;107250;1298;22524;-88
2024/03/02 11:28:47;;;;;;;;;;;;;;;11.00;100.00;95936.48;107259;1286;23673;-89
2024/03/02 11:31:13;;;;;;;;;;;;;;;10.97;100.00;95937.65;107168;1298;22532;-88
2024/03/02 11:33:40;;;;;;;;;;;;;;;10.93;100.00;95933.67;107479;1292;22688;-88
2024/03/02 11:36:07;;;;;;;;;;;;;;;10.86;100.00;95933.95;107439;1297;22514;-88
2024/03/02 11:38:34;;;;;;;;;;;;;;;10.80;100.00;95936.38;107251;1295;24262;-88
2024/03/02 11:41:01;;;;;;;;;;;;;;;10.75;100.00;95933.41;107446;1298;23179;-88
2024/03/02 11:43:28;;;;;;;;;;;;;;;10.74;100.00;95933.40;107295;1297;24984;-88
2024/03/02 11:45:59;;;;;;;;;;;;;;;10.74;100.00;95932.39;107350;1297;23758;-88
2024/03/02 11:48:25;;;;;;;;;;;;;;;10.72;100.00;95933.33;107181;1298;23209;-88
2024/03/02 11:50:52;;;;;;;;;;;;;;;10.67;100.00;95932.20;107353;1297;25303;-87
2024/03/02 11:53:19;;;;;;;;;;;;;;;10.61;100.00;95933.02;107228;1298;22654;-88
2024/03/02 11:55:49;;;;;;;;;;;;;;;10.58;100.00;95933.42;107344;1297;22601;-88
2024/03/02 11:58:20;;;;;;;;;;;;;;;10.55;100.00;95935.64;107237;1297;22553;-88
2024/03/02 12:00:46;;;;;;;;;;;;;;;10.52;100.00;95934.05;107540;1292;22570;-89
2024/03/02 12:03:13;;;;;;;;;;;;;;;10.53;100.00;95928.38;108615;1289;23209;-89
2024/03/02 12:05:39;;;;;;;;;;;;;;;10.52;100.00;95932.48;108551;1292;23217;-89
2024/03/02 12:08:06;;;;;;;;;;;;;;;10.53;100.00;95928.73;108447;1297;22436;-89
2024/03/02 12:10:33;;;;;;;;;;;;;;;10.58;100.00;95926.69;108411;1296;22504;-89
2024/03/02 12:13:00;;;;;;;;;;;;;;;10.56;100.00;95922.54;108592;1291;22463;-89
2024/03/02 12:15:28;;;;;;;;;;;;;;;10.51;100.00;95925.05;108639;1297;22565;-88
2024/03/02 12:17:54;;;;;;;;;;;;;;;10.49;100.00;95925.31;108677;1289;22426;-89
2024/03/02 12:20:23;;;;;;;;;;;;;;;10.46;100.00;95926.55;108510;1293;22461;-88
2024/03/02 12:22:54;;;;;;;;;;;;;;;10.46;100.00;95925.46;108507;1297;22465;-89
2024/03/02 12:25:20;;;;;;;;;;;;;;;10.46;100.00;95923.42;108594;1295;23100;-89
2024/03/02 12:27:47;;;;;;;;;;;;;;;10.47;100.00;95925.52;108649;1296;22460;-89
2024/03/02 12:30:14;;;;;;;;;;;;;;;10.45;100.00;95924.75;108403;1295;23237;-89
2024/03/02 12:32:41;;;;;;;;;;;;;;;10.41;100.00;95923.23;108590;1292;23170;-89
2024/03/02 12:35:07;;;;;;;;;;;;;;;10.40;100.00;95921.39;107715;1292;23020;-88
2024/03/02 12:37:37;;;;;;;;;;;;;;;10.39;100.00;95921.14;107213;1297;22511;-88
2024/03/02 12:40:05;;;;;;;;;;;;;;;10.40;100.00;95921.62;107170;1297;22640;-88
2024/03/02 12:42:31;;;;;;;;;;;;;;;10.42;100.00;95921.65;107299;1297;25269;-88
2024/03/02 12:44:58;;;;;;;;;;;;;;;10.44;100.00;95922.86;107114;1298;22524;-88
2024/03/02 12:47:24;;;;;;;;;;;;;;;10.42;100.00;95922.49;107303;1293;25420;-88
2024/03/02 12:49:52;;;;;;;;;;;;;;;10.37;100.00;95918.81;107148;1298;24377;-89
2024/03/02 12:52:19;;;;;;;;;;;;;;;10.32;100.00;95918.27;107161;1280;22557;-88
2024/03/02 12:54:45;;;;;;;;;;;;;;;10.29;100.00;95915.06;107321;1292;24187;-88
2024/03/02 12:57:16;;;;;;;;;;;;;;;10.29;100.00;95911.88;107361;1297;24312;-88
2024/03/02 12:59:45;;;;;;;;;;;;;;;10.32;100.00;95914.95;107495;1292;22534;-88
2024/03/02 13:02:16;;;;;;;;;;;;;;;10.36;100.00;95916.21;107280;1292;24204;-89
2024/03/02 13:04:43;;;;;;;;;;;;;;;10.39;100.00;95913.86;107213;1292;23824;-89
2024/03/02 13:07:10;;;;;;;;;;;;;;;10.41;100.00;95910.77;107234;1292;24261;-88
2024/03/02 13:09:36;;;;;;;;;;;;;;;10.43;100.00;95906.32;107177;1291;22563;-88
2024/03/02 13:12:04;;;;;;;;;;;;;;;10.46;100.00;95907.25;107151;1292;25316;-88
2024/03/02 13:14:32;;;;;;;;;;;;;;;10.49;100.00;95904.05;107162;1298;24231;-88
2024/03/02 13:17:00;;;;;;;;;;;;;;;10.49;100.00;95900.39;107259;1292;25431;-88
2024/03/02 13:19:30;;;;;;;;;;;;;;;10.53;100.00;95897.55;107170;1295;22570;-88
2024/03/02 13:21:58;;;;;;;;;;;;;;;10.59;100.00;95895.39;107228;1298;22684;-88
2024/03/02 13:24:28;;;;;;;;;;;;;;;10.62;100.00;95895.77;108636;1297;22496;-89
2024/03/02 13:26:57;;;;;;;;;;;;;;;10.65;100.00;95896.98;108560;1291;22433;-85
2024/03/02 13:29:24;;;;;;;;;;;;;;;10.68;100.00;95894.30;108614;1291;22434;-85
2024/03/02 13:31:51;;;;;;;;;;;;;;;10.70;100.00;95889.40;108743;1291;22457;-85
2024/03/02 13:34:17;;;;;;;;;;;;;;;10.72;100.00;95887.92;108450;1285;22541;-85
2024/03/02 13:36:44;;;;;;;;;;;;;;;10.73;100.00;95886.89;108495;1292;23060;-85
2024/03/02 13:39:10;;;;;;;;;;;;;;;10.75;100.00;95887.43;108416;1295;22478;-85
2024/03/02 13:41:37;;;;;;;;;;;;;;;10.73;100.00;95888.16;108466;1293;22536;-85
2024/03/02 13:44:03;;;;;;;;;;;;;;;10.72;100.00;95885.20;108425;1290;22460;-85
2024/03/02 13:46:31;;;;;;;;;;;;;;;10.70;100.00;95883.08;108412;1295;23062;-85
2024/03/02 13:48:59;;;;;;;;;;;;;;;10.74;100.00;95885.03;107844;1297;22553;-85
2024/03/02 13:51:25;;;;;;;;;;;;;;;10.77;100.00;95882.73;107341;1298;22531;-85
2024/03/02 13:53:51;;;;;;;;;;;;;;;10.81;100.00;95884.80;107350;1295;22517;-85
2024/03/02 13:56:18;;;;;;;;;;;;;;;10.81;100.00;95886.05;107328;1290;22624;-85
2024/03/02 13:58:46;;;;;;;;;;;;;;;10.81;100.00;95886.92;107328;1295;23297;-85
2024/03/02 14:01:12;;;;;;;;;;;;;;;10.82;100.00;95884.38;107302;1292;23812;-85
2024/03/02 14:03:38;;;;;;;;;;;;;;;10.82;100.00;95885.73;107210;1298;22540;-85
2024/03/02 14:06:06;;;;;;;;;;;;;;;10.81;100.00;95888.88;107143;1298;22664;-85
2024/03/02 14:08:35;;;;;;;;;;;;;;;10.78;100.00;95893.77;107179;1292;22543;-85
2024/03/02 14:11:02;;;;;;;;;;;;;;;10.79;100.00;95889.24;107182;1298;22530;-84
2024/03/02 14:13:29;;;;;;;;;;;;;;;10.82;100.00;95890.41;107127;1296;22614;-85
2024/03/02 14:15:55;;;;;;;;;;;;;;;10.86;100.00;95887.54;107294;1283;23691;-85
2024/03/02 14:18:21;;;;;;;;;;;;;;;10.88;100.00;95888.30;107373;1298;22513;-85
2024/03/02 14:20:52;;;;;;;;;;;;;;;10.90;100.00;95896.26;107224;1292;23888;-84
2024/03/02 14:23:21;;;;;;;;;;;;;;;10.91;100.00;95895.60;107157;1297;22541;-85
2024/03/02 14:25:48;;;;;;;;;;;;;;;10.91;100.00;95899.40;107133;1297;22571;-85
2024/03/02 14:28:16;;;;;;;;;;;;;;;10.89;100.00;95903.21;107276;1297;22523;-85
2024/03/02 14:30:42;;;;;;;;;;;;;;;10.88;100.00;95902.48;107220;1292;22560;-84
2024/03/02 14:33:10;;;;;;;;;;;;;;;10.88;100.00;95902.25;107182;1292;25413;-85
2024/03/02 14:35:37;;;;;;;;;;;;;;;10.87;100.00;95901.45;107206;1295;22555;-85
2024/03/02 14:38:03;;;;;;;;;;;;;;;10.89;100.00;95900.01;107195;1292;22572;-84
2024/03/02 14:40:30;;;;;;;;;;;;;;;10.88;100.00;95903.41;107236;1292;23881;-84
2024/03/02 14:42:57;;;;;;;;;;;;;;;10.84;100.00;95901.29;108440;1297;23141;-85
2024/03/02 14:45:23;;;;;;;;;;;;;;;10.81;100.00;95903.45;108647;1298;22453;-85
2024/03/02 14:47:51;;;;;;;;;;;;;;;10.80;100.00;95903.72;108562;1296;22479;-85
2024/03/02 14:50:17;;;;;;;;;;;;;;;10.79;100.00;95899.48;108414;1298;23306;-85
2024/03/02 14:52:45;;;;;;;;;;;;;;;10.80;100.00;95897.68;108577;1298;22473;-85
2024/03/02 14:55:11;;;;;;;;;;;;;;;10.78;100.00;95891.64;108484;1289;22428;-85
2024/03/02 14:57:38;;;;;;;;;;;;;;;10.75;100.00;95889.92;108433;1298;22424;-85
2024/03/02 15:00:07;;;;;;;;;;;;;;;10.75;100.00;95884.20;108599;1292;22431;-85
2024/03/02 15:02:34;;;;;;;;;;;;;;;10.75;100.00;95879.04;108576;1292;22444;-85
2024/03/02 15:05:00;;;;;;;;;;;;;;;10.77;100.00;95881.36;108483;1290;22543;-85
2024/03/02 15:07:27;;;;;;;;;;;;;;;10.78;100.00;95880.36;108565;1292;22459;-86
2024/03/02 15:09:54;;;;;;;;;;;;;;;10.77;100.00;95877.52;107850;1297;22586;-85
2024/03/02 15:12:21;;;;;;;;;;;;;;;10.77;100.00;95877.92;107082;1295;24230;-85
2024/03/02 15:14:47;;;;;;;;;;;;;;;10.80;100.00;95879.13;107315;1297;22748;-85
2024/03/02 15:17:18;;;;;;;;;;;;;;;10.82;100.00;95875.05;107102;1298;22535;-84
2024/03/02 15:19:45;;;;;;;;;;;;;;;10.82;100.00;95872.77;107313;1286;22535;-85
2024/03/02 15:22:12;;;;;;;;;;;;;;;10.81;100.00;95874.97;107245;1298;22516;-85
2024/03/02 15:24:38;;;;;;;;;;;;;;;10.77;100.00;95875.48;107210;1295;23252;-84
2024/03/02 15:27:05;;;;;;;;;;;;;;;10.74;100.00;95873.80;107081;1295;22536;-84
2024/03/02 15:29:32;;;;;;;;;;;;;;;10.72;100.00;95873.13;107181;1297;22486;-84
2024/03/02 15:31:59;;;;;;;;;;;;;;;10.70;100.00;95873.48;107100;1298;23434;-84
2024/03/02 15:34:25;;;;;;;;;;;;;;;10.65;100.00;95875.31;107291;1293;22524;-84